Time;durP1;ratioP1;P1;durP2;ratioP2;P2;SDS_P1;SDS_P2;PMS_P1;PMS_P2;Temp;Humidity;BMP_temperature;BMP_pressure;BME280_temperature;BME280_humidity;BME280_pressure;Samples;Min_cycle;Max_cycle;Signal;HPM_P1;HPM_P2
2021/11/14 00:01:06;;;;;;;54.87;20.70;;;;;;;;;;5023429;28;20212;-74
2021/11/14 00:03:35;;;;;;;50.63;20.80;;;;;;;;;;5015955;28;20273;-74
2021/11/14 00:06:03;;;;;;;50.03;19.97;;;;;;;;;;5012344;28;20221;-73
2021/11/14 00:08:28;;;;;;;49.60;20.23;;;;;;;;;;5028454;28;20233;-73
2021/11/14 00:10:58;;;;;;;51.40;20.50;;;;;;;;;;5005006;28;20223;-73
2021/11/14 00:13:24;;;;;;;45.57;18.60;;;;;;;;;;4999572;28;20285;-74
2021/11/14 00:15:49;;;;;;;47.63;18.53;;;;;;;;;;5032141;28;20220;-73
2021/11/14 00:18:17;;;;;;;47.80;18.80;;;;;;;;;;4982871;28;20313;-74
2021/11/14 00:20:45;;;;;;;47.37;19.23;;;;;;;;;;5032206;28;20216;-74
2021/11/14 00:23:14;;;;;;;44.03;19.40;;;;;;;;;;5032795;28;20665;-75
2021/11/14 00:25:42;;;;;;;45.57;19.37;;;;;;;;;;5001169;28;20216;-73
2021/11/14 00:28:12;;;;;;;41.03;18.20;;;;;;;;;;5015950;28;20337;-75
2021/11/14 00:30:49;;;;;;;41.13;18.00;;;;;;;;;;5014249;28;20223;-74
2021/11/14 00:33:17;;;;;;;39.33;17.30;;;;;;;;;;5012023;28;20232;-73
2021/11/14 00:35:51;;;;;;;37.57;17.20;;;;;;;;;;5015076;28;20295;-75
2021/11/14 00:38:20;;;;;;;37.17;17.50;;;;;;;;;;5015662;28;20319;-72
2021/11/14 00:40:45;;;;;;;41.87;19.07;;;;;;;;;;5011286;28;20706;-74
2021/11/14 00:43:13;;;;;;;36.23;18.90;;;;;;;;;;5031416;28;20216;-74
2021/11/14 00:45:40;;;;;;;39.67;18.20;;;;;;;;;;5015593;28;20250;-74
2021/11/14 00:48:08;;;;;;;42.03;19.53;;;;;;;;;;5015810;28;20386;-74
2021/11/14 00:50:42;;;;;;;40.90;19.03;;;;;;;;;;5015464;28;20587;-74
2021/11/14 00:53:11;;;;;;;39.23;18.00;;;;;;;;;;5015774;28;20230;-73
2021/11/14 00:55:37;;;;;;;38.57;18.33;;;;;;;;;;4998320;28;20708;-75
2021/11/14 00:58:09;;;;;;;33.70;17.87;;;;;;;;;;5030362;28;20232;-76
2021/11/14 01:00:37;;;;;;;34.97;17.23;;;;;;;;;;5032529;28;20212;-74
2021/11/14 01:03:02;;;;;;;36.67;18.30;;;;;;;;;;5014063;28;20967;-73
2021/11/14 01:05:31;;;;;;;37.20;17.13;;;;;;;;;;5015212;28;20286;-74
2021/11/14 01:08:01;;;;;;;44.57;20.07;;;;;;;;;;5016037;28;20315;-73
2021/11/14 01:10:32;;;;;;;38.90;18.50;;;;;;;;;;5015166;28;20220;-74
2021/11/14 01:13:00;;;;;;;38.00;18.50;;;;;;;;;;5008105;28;20228;-74
2021/11/14 01:15:26;;;;;;;36.33;17.47;;;;;;;;;;5013957;28;20214;-74
2021/11/14 01:17:54;;;;;;;41.23;18.17;;;;;;;;;;5015006;28;20692;-74
2021/11/14 01:20:25;;;;;;;39.83;18.77;;;;;;;;;;5015163;28;20231;-74
2021/11/14 01:22:58;;;;;;;44.27;19.40;;;;;;;;;;5031629;28;20306;-74
2021/11/14 01:25:26;;;;;;;44.17;18.97;;;;;;;;;;4998264;28;20635;-74
2021/11/14 01:27:51;;;;;;;39.60;18.27;;;;;;;;;;4989523;28;20231;-73
2021/11/14 01:30:25;;;;;;;47.97;19.80;;;;;;;;;;4994458;28;20229;-73
2021/11/14 01:32:54;;;;;;;43.50;19.53;;;;;;;;;;5015870;28;20220;-74
2021/11/14 01:35:24;;;;;;;47.13;20.10;;;;;;;;;;4998871;28;20247;-74
2021/11/14 01:37:50;;;;;;;49.50;20.53;;;;;;;;;;5031175;28;20456;-74
2021/11/14 01:40:24;;;;;;;51.70;20.87;;;;;;;;;;5030811;28;20231;-73
2021/11/14 01:42:49;;;;;;;50.33;21.30;;;;;;;;;;5015098;28;20751;-75
2021/11/14 01:45:15;;;;;;;54.43;22.17;;;;;;;;;;5030844;28;20224;-75
2021/11/14 01:47:43;;;;;;;55.40;21.83;;;;;;;;;;5013926;28;20236;-75
2021/11/14 01:50:12;;;;;;;56.83;21.53;;;;;;;;;;5013479;28;20224;-74
2021/11/14 01:52:40;;;;;;;58.13;22.10;;;;;;;;;;5014404;28;20220;-74
2021/11/14 01:55:09;;;;;;;62.17;23.70;;;;;;;;;;5014406;28;20212;-75
2021/11/14 01:57:36;;;;;;;66.83;24.03;;;;;;;;;;5031551;28;20232;-75
2021/11/14 02:00:07;;;;;;;56.97;22.83;;;;;;;;;;5030952;28;20219;-74
2021/11/14 02:02:42;;;;;;;59.60;22.30;;;;;;;;;;5011501;28;20362;-76
2021/11/14 02:05:08;;;;;;;60.77;23.07;;;;;;;;;;5011055;28;20764;-74
2021/11/14 02:07:33;;;;;;;64.80;24.63;;;;;;;;;;5001503;28;20216;-73
2021/11/14 02:09:59;;;;;;;63.60;23.90;;;;;;;;;;4998497;28;20227;-73
2021/11/14 02:12:29;;;;;;;57.70;21.57;;;;;;;;;;5014058;28;20669;-73
2021/11/14 02:14:54;;;;;;;61.83;22.83;;;;;;;;;;5031064;28;20219;-76
2021/11/14 02:17:27;;;;;;;61.93;24.37;;;;;;;;;;5030959;28;20232;-74
2021/11/14 02:19:52;;;;;;;67.60;22.60;;;;;;;;;;4998557;28;20224;-75
2021/11/14 02:22:20;;;;;;;61.47;23.30;;;;;;;;;;5014018;28;20289;-74
2021/11/14 02:24:51;;;;;;;66.93;24.30;;;;;;;;;;5031870;28;20220;-74
2021/11/14 02:27:18;;;;;;;58.37;23.30;;;;;;;;;;5014176;28;20637;-74
2021/11/14 02:29:44;;;;;;;64.27;23.97;;;;;;;;;;5031312;28;20278;-74
2021/11/14 02:32:12;;;;;;;67.27;24.50;;;;;;;;;;5013844;28;20224;-74
2021/11/14 02:34:37;;;;;;;61.93;21.83;;;;;;;;;;5014351;28;20601;-74
2021/11/14 02:37:03;;;;;;;61.23;23.77;;;;;;;;;;5013911;28;20259;-74
2021/11/14 02:39:28;;;;;;;61.73;24.23;;;;;;;;;;5008530;28;20270;-74
2021/11/14 02:41:56;;;;;;;70.20;24.97;;;;;;;;;;5005782;28;20704;-74
2021/11/14 02:44:24;;;;;;;64.70;23.67;;;;;;;;;;5013800;28;20216;-74
2021/11/14 02:46:52;;;;;;;66.90;23.13;;;;;;;;;;5014853;28;20224;-74
2021/11/14 02:49:20;;;;;;;65.07;22.33;;;;;;;;;;5031663;28;20224;-74
2021/11/14 02:51:48;;;;;;;69.83;24.97;;;;;;;;;;5030662;28;20242;-74
2021/11/14 02:54:16;;;;;;;60.30;23.00;;;;;;;;;;5024504;28;20220;-74
2021/11/14 02:56:42;;;;;;;68.13;25.30;;;;;;;;;;4997760;28;20282;-74
2021/11/14 02:59:10;;;;;;;62.60;23.83;;;;;;;;;;4997892;28;20781;-74
2021/11/14 03:01:52;;;;;;;63.93;25.00;;;;;;;;;;5014606;28;20220;-74
2021/11/14 03:04:26;;;;;;;62.50;22.77;;;;;;;;;;5027243;28;20220;-74
2021/11/14 03:06:55;;;;;;;65.03;25.40;;;;;;;;;;5005050;28;20296;-74
2021/11/14 03:09:25;;;;;;;60.57;23.03;;;;;;;;;;5002874;28;20220;-74
2021/11/14 03:11:54;;;;;;;65.43;24.90;;;;;;;;;;5034182;28;20278;-74
2021/11/14 03:14:20;;;;;;;63.70;24.87;;;;;;;;;;5016760;28;20227;-75
2021/11/14 03:16:45;;;;;;;64.60;25.50;;;;;;;;;;5034303;28;20303;-74
2021/11/14 03:19:11;;;;;;;65.27;26.03;;;;;;;;;;5013674;28;20231;-74
2021/11/14 03:21:37;;;;;;;63.13;25.67;;;;;;;;;;5014010;28;20225;-75
2021/11/14 03:24:05;;;;;;;64.27;26.03;;;;;;;;;;5004940;28;20218;-74
2021/11/14 03:26:31;;;;;;;67.53;27.50;;;;;;;;;;5017260;28;20307;-73
2021/11/14 03:28:58;;;;;;;63.60;26.80;;;;;;;;;;5034963;28;20230;-74
2021/11/14 03:31:27;;;;;;;68.47;28.20;;;;;;;;;;5017134;28;20354;-74
2021/11/14 03:33:57;;;;;;;65.17;26.73;;;;;;;;;;5002960;28;20226;-74
2021/11/14 03:36:25;;;;;;;57.03;27.10;;;;;;;;;;5033556;28;20612;-74
2021/11/14 03:38:55;;;;;;;67.60;28.33;;;;;;;;;;5017383;28;20246;-74
2021/11/14 03:41:23;;;;;;;66.40;28.27;;;;;;;;;;5015520;28;20223;-75
2021/11/14 03:43:49;;;;;;;65.20;27.63;;;;;;;;;;5032381;28;20274;-74
2021/11/14 03:46:17;;;;;;;64.20;28.23;;;;;;;;;;5032699;28;20243;-74
2021/11/14 03:48:46;;;;;;;65.03;28.67;;;;;;;;;;4985604;28;20220;-75
2021/11/14 03:51:17;;;;;;;68.97;29.13;;;;;;;;;;5017267;28;20216;-75
2021/11/14 03:53:45;;;;;;;71.07;29.80;;;;;;;;;;5033776;28;20213;-74
2021/11/14 03:56:15;;;;;;;79.87;31.13;;;;;;;;;;5048448;28;20228;-74
2021/11/14 03:58:48;;;;;;;70.53;29.57;;;;;;;;;;5033934;28;20284;-74
2021/11/14 04:01:24;;;;;;;79.33;31.30;;;;;;;;;;5017041;28;20282;-73
2021/11/14 04:03:53;;;;;;;80.27;29.83;;;;;;;;;;5034336;28;20227;-74
2021/11/14 04:06:21;;;;;;;77.80;31.33;;;;;;;;;;5034007;28;20216;-74
2021/11/14 04:08:47;;;;;;;85.20;31.70;;;;;;;;;;5017065;28;20231;-73
2021/11/14 04:11:17;;;;;;;72.10;30.43;;;;;;;;;;5021752;28;20590;-76
2021/11/14 04:13:45;;;;;;;84.13;31.00;;;;;;;;;;5000531;28;20259;-74
2021/11/14 04:16:10;;;;;;;89.03;32.77;;;;;;;;;;5015507;28;20223;-74
2021/11/14 04:18:40;;;;;;;81.57;32.63;;;;;;;;;;5000619;28;20251;-74
2021/11/14 04:21:06;;;;;;;89.97;34.97;;;;;;;;;;5015072;28;20246;-75
2021/11/14 04:23:32;;;;;;;93.27;35.50;;;;;;;;;;5032356;28;20224;-75
2021/11/14 04:26:05;;;;;;;94.07;36.57;;;;;;;;;;5004135;28;20216;-75
2021/11/14 04:28:36;;;;;;;95.30;36.70;;;;;;;;;;5032921;28;20711;-75
2021/11/14 04:31:04;;;;;;;109.83;39.67;;;;;;;;;;5044116;28;20247;-75
2021/11/14 04:33:30;;;;;;;99.20;36.83;;;;;;;;;;5033042;28;20310;-75
2021/11/14 04:35:58;;;;;;;105.33;40.20;;;;;;;;;;5038158;28;20219;-74
2021/11/14 04:38:28;;;;;;;93.57;38.07;;;;;;;;;;5032060;28;20721;-74
2021/11/14 04:40:54;;;;;;;91.87;36.87;;;;;;;;;;5032186;28;20228;-74
2021/11/14 04:43:24;;;;;;;101.10;39.43;;;;;;;;;;5015219;28;20242;-74
2021/11/14 04:45:52;;;;;;;98.27;38.30;;;;;;;;;;5023770;28;20230;-74
2021/11/14 04:48:21;;;;;;;104.03;41.53;;;;;;;;;;5016784;28;20222;-74
2021/11/14 04:50:50;;;;;;;112.60;42.60;;;;;;;;;;5032131;28;20231;-72
2021/11/14 04:53:15;;;;;;;105.70;39.93;;;;;;;;;;5041591;28;20307;-75
2021/11/14 04:55:41;;;;;;;112.53;42.30;;;;;;;;;;5037742;28;20725;-73
2021/11/14 04:58:11;;;;;;;107.10;42.47;;;;;;;;;;5020451;28;20248;-74
2021/11/14 05:00:51;;;;;;;106.97;42.90;;;;;;;;;;5033135;28;20212;-74
2021/11/14 05:03:17;;;;;;;103.97;42.63;;;;;;;;;;5033222;28;20220;-74
2021/11/14 05:05:43;;;;;;;104.47;40.60;;;;;;;;;;5032779;28;20220;-74
2021/11/14 05:08:13;;;;;;;102.63;42.67;;;;;;;;;;5032701;28;20228;-73
2021/11/14 05:10:43;;;;;;;100.53;42.00;;;;;;;;;;5016122;28;20606;-73
2021/11/14 05:13:12;;;;;;;106.13;42.10;;;;;;;;;;5014916;28;20306;-73
2021/11/14 05:15:40;;;;;;;100.03;41.13;;;;;;;;;;5031470;28;20220;-74
2021/11/14 05:18:06;;;;;;;98.43;39.30;;;;;;;;;;5014868;28;20248;-74
2021/11/14 05:20:32;;;;;;;102.20;39.07;;;;;;;;;;5032881;28;20255;-74
2021/11/14 05:22:57;;;;;;;106.97;42.37;;;;;;;;;;4998196;28;20314;-74
2021/11/14 05:25:23;;;;;;;102.20;40.43;;;;;;;;;;5013817;28;20254;-75
2021/11/14 05:27:53;;;;;;;106.93;42.97;;;;;;;;;;5032914;28;20216;-74
2021/11/14 05:30:21;;;;;;;104.27;41.70;;;;;;;;;;5028365;28;20613;-75
2021/11/14 05:32:49;;;;;;;102.30;41.80;;;;;;;;;;5013636;28;20315;-73
2021/11/14 05:35:20;;;;;;;108.90;42.33;;;;;;;;;;5013061;28;20223;-74
2021/11/14 05:37:45;;;;;;;111.43;45.07;;;;;;;;;;5031321;28;20290;-74
2021/11/14 05:40:14;;;;;;;112.63;44.70;;;;;;;;;;5046582;28;20256;-74
2021/11/14 05:42:40;;;;;;;104.83;41.80;;;;;;;;;;5025183;28;20244;-74
2021/11/14 05:45:06;;;;;;;108.70;41.37;;;;;;;;;;5036822;28;20664;-74
2021/11/14 05:47:31;;;;;;;110.60;42.53;;;;;;;;;;5002884;28;20200;-74
2021/11/14 05:49:59;;;;;;;98.43;40.17;;;;;;;;;;5030512;28;20239;-74
2021/11/14 05:52:24;;;;;;;109.90;43.77;;;;;;;;;;5030361;28;20231;-74
2021/11/14 05:54:50;;;;;;;104.30;42.43;;;;;;;;;;5030317;28;20220;-73
2021/11/14 05:57:23;;;;;;;106.83;44.10;;;;;;;;;;5031341;28;20236;-74
2021/11/14 05:59:59;;;;;;;97.30;41.70;;;;;;;;;;4999569;28;20224;-74
2021/11/14 06:07:38;;;;;;;79.57;35.33;;;;;;;;;;5032415;28;20219;-73
2021/11/14 06:10:04;;;;;;;84.13;36.70;;;;;;;;;;4981409;28;20220;-75
2021/11/14 06:12:33;;;;;;;90.27;38.07;;;;;;;;;;5014573;28;20216;-75
2021/11/14 06:14:59;;;;;;;87.10;36.63;;;;;;;;;;5030680;28;20216;-75
2021/11/14 06:17:29;;;;;;;89.57;37.77;;;;;;;;;;5013586;28;20315;-73
2021/11/14 06:19:57;;;;;;;99.20;39.37;;;;;;;;;;4998788;28;20208;-75
2021/11/14 06:22:27;;;;;;;91.70;38.50;;;;;;;;;;5010675;28;20233;-74
2021/11/14 06:24:53;;;;;;;94.50;38.80;;;;;;;;;;4994514;28;20721;-74
2021/11/14 06:27:18;;;;;;;94.83;37.00;;;;;;;;;;5020391;28;20220;-74
2021/11/14 06:29:44;;;;;;;86.53;34.10;;;;;;;;;;5030869;28;20223;-74
2021/11/14 06:32:10;;;;;;;96.60;38.20;;;;;;;;;;5031054;28;20310;-74
2021/11/14 06:34:37;;;;;;;100.13;37.93;;;;;;;;;;5018684;28;20315;-74
2021/11/14 06:37:03;;;;;;;94.43;38.37;;;;;;;;;;5036695;28;20316;-74
2021/11/14 06:39:29;;;;;;;98.87;37.73;;;;;;;;;;5037474;28;20239;-73
2021/11/14 06:41:57;;;;;;;99.43;37.67;;;;;;;;;;5036474;28;20224;-73
2021/11/14 06:44:22;;;;;;;89.67;34.23;;;;;;;;;;5002508;28;20744;-74
2021/11/14 06:46:50;;;;;;;97.40;37.70;;;;;;;;;;5018703;28;20741;-76
2021/11/14 06:49:20;;;;;;;89.27;35.50;;;;;;;;;;5016102;28;20275;-74
2021/11/14 06:51:48;;;;;;;96.07;36.13;;;;;;;;;;5033859;28;20270;-74
2021/11/14 06:54:13;;;;;;;98.50;36.67;;;;;;;;;;4986120;28;20633;-74
2021/11/14 06:56:43;;;;;;;88.93;33.77;;;;;;;;;;5019296;28;20224;-74
2021/11/14 06:59:09;;;;;;;90.37;33.37;;;;;;;;;;5035991;28;20733;-74
2021/11/14 07:01:41;;;;;;;81.57;30.43;;;;;;;;;;5036321;28;20635;-74
2021/11/14 07:04:07;;;;;;;88.37;31.40;;;;;;;;;;5016017;28;20217;-74
2021/11/14 07:06:37;;;;;;;98.73;33.60;;;;;;;;;;4999106;28;20670;-74
2021/11/14 07:09:08;;;;;;;81.80;31.10;;;;;;;;;;5001424;28;20216;-73
2021/11/14 07:11:34;;;;;;;84.33;31.33;;;;;;;;;;5036398;28;20224;-74
2021/11/14 07:14:03;;;;;;;85.30;33.43;;;;;;;;;;5016384;28;20728;-74
2021/11/14 07:16:30;;;;;;;79.93;31.27;;;;;;;;;;5018541;28;20235;-74
2021/11/14 07:18:57;;;;;;;80.90;31.13;;;;;;;;;;5003055;28;20231;-73
2021/11/14 07:21:25;;;;;;;70.63;30.23;;;;;;;;;;5018402;28;20611;-74
2021/11/14 07:23:51;;;;;;;80.20;30.20;;;;;;;;;;5035291;28;20231;-74
2021/11/14 07:26:18;;;;;;;82.23;32.10;;;;;;;;;;5018246;28;20222;-73
2021/11/14 07:28:46;;;;;;;80.23;32.33;;;;;;;;;;5035300;28;20216;-73
2021/11/14 07:31:11;;;;;;;76.73;31.70;;;;;;;;;;4986158;28;20231;-74
2021/11/14 07:33:37;;;;;;;78.83;31.33;;;;;;;;;;5027487;28;20227;-74
2021/11/14 07:36:07;;;;;;;65.17;29.97;;;;;;;;;;5018786;28;20223;-73
2021/11/14 07:38:37;;;;;;;67.63;29.20;;;;;;;;;;5019353;28;20220;-74
2021/11/14 07:41:05;;;;;;;65.47;30.60;;;;;;;;;;5018623;28;20216;-74
2021/11/14 07:43:31;;;;;;;66.93;31.07;;;;;;;;;;5034466;28;20282;-74
2021/11/14 07:45:59;;;;;;;71.27;30.03;;;;;;;;;;5018201;28;20287;-74
2021/11/14 07:48:27;;;;;;;64.17;29.57;;;;;;;;;;5018724;28;20219;-74
2021/11/14 07:50:57;;;;;;;62.37;29.00;;;;;;;;;;5018976;28;20220;-73
2021/11/14 07:53:23;;;;;;;64.97;29.23;;;;;;;;;;5034284;28;20228;-73
2021/11/14 07:55:49;;;;;;;58.93;29.03;;;;;;;;;;5034817;28;20591;-75
2021/11/14 07:58:15;;;;;;;55.43;27.17;;;;;;;;;;5035034;28;20220;-74
2021/11/14 08:00:41;;;;;;;60.80;27.87;;;;;;;;;;5019019;28;20228;-74
2021/11/14 08:03:10;;;;;;;59.33;28.30;;;;;;;;;;5034895;28;20224;-74
2021/11/14 08:05:37;;;;;;;58.33;28.13;;;;;;;;;;5036849;28;20629;-73
2021/11/14 08:08:06;;;;;;;58.43;28.90;;;;;;;;;;5018342;28;20277;-75
2021/11/14 08:10:33;;;;;;;53.40;28.70;;;;;;;;;;5018233;28;20235;-75
2021/11/14 08:13:01;;;;;;;58.77;30.03;;;;;;;;;;5017606;28;20235;-75
2021/11/14 08:15:29;;;;;;;60.67;29.33;;;;;;;;;;5033872;28;20216;-75
2021/11/14 08:17:55;;;;;;;53.27;27.03;;;;;;;;;;5036994;28;20220;-74
2021/11/14 08:20:25;;;;;;;57.23;28.23;;;;;;;;;;5018171;28;20224;-74
2021/11/14 08:22:50;;;;;;;58.63;27.53;;;;;;;;;;5049890;28;20224;-73
2021/11/14 08:25:18;;;;;;;57.80;29.33;;;;;;;;;;5046394;28;20250;-75
2021/11/14 08:27:49;;;;;;;50.67;26.57;;;;;;;;;;5026559;28;20220;-74
2021/11/14 08:30:17;;;;;;;55.07;27.93;;;;;;;;;;5029251;28;20224;-74
2021/11/14 08:32:45;;;;;;;60.17;28.93;;;;;;;;;;5016621;28;20240;-74
2021/11/14 08:35:11;;;;;;;54.13;27.30;;;;;;;;;;5014470;28;20224;-74
2021/11/14 08:37:39;;;;;;;55.03;27.63;;;;;;;;;;4998284;28;20259;-74
2021/11/14 08:40:06;;;;;;;54.83;27.00;;;;;;;;;;5028887;28;20228;-74
2021/11/14 08:42:32;;;;;;;53.77;27.63;;;;;;;;;;5017214;28;20310;-74
2021/11/14 08:45:01;;;;;;;53.73;25.90;;;;;;;;;;5034219;28;20710;-74
2021/11/14 08:47:31;;;;;;;59.57;28.77;;;;;;;;;;5032349;28;20220;-74
2021/11/14 08:49:57;;;;;;;56.80;27.37;;;;;;;;;;5016427;28;20721;-75
2021/11/14 08:52:26;;;;;;;59.40;29.20;;;;;;;;;;5034045;28;20228;-74
2021/11/14 08:54:56;;;;;;;52.17;29.33;;;;;;;;;;5004919;28;20308;-76
2021/11/14 08:57:21;;;;;;;57.80;30.07;;;;;;;;;;5007307;28;20261;-74
2021/11/14 08:59:50;;;;;;;54.70;27.83;;;;;;;;;;5000431;28;20225;-75
2021/11/14 09:02:22;;;;;;;54.17;28.43;;;;;;;;;;5001053;28;20776;-74
2021/11/14 09:04:49;;;;;;;49.30;27.33;;;;;;;;;;5035221;28;20222;-74
2021/11/14 09:07:15;;;;;;;50.20;27.10;;;;;;;;;;5035288;28;20304;-75
2021/11/14 09:09:41;;;;;;;49.87;27.93;;;;;;;;;;5033626;28;20220;-75
2021/11/14 09:12:07;;;;;;;56.97;28.57;;;;;;;;;;5033098;28;20717;-74
2021/11/14 09:14:33;;;;;;;50.70;27.43;;;;;;;;;;5033481;28;20648;-76
2021/11/14 09:17:01;;;;;;;51.30;28.20;;;;;;;;;;5032404;28;20220;-75
2021/11/14 09:19:27;;;;;;;48.13;27.43;;;;;;;;;;5017139;28;20704;-75
2021/11/14 09:21:52;;;;;;;46.03;26.50;;;;;;;;;;4999060;28;20220;-75
2021/11/14 09:24:19;;;;;;;44.80;25.50;;;;;;;;;;5015851;28;20737;-75
2021/11/14 09:26:47;;;;;;;48.70;26.60;;;;;;;;;;5034257;28;20227;-74
2021/11/14 09:29:15;;;;;;;47.27;26.33;;;;;;;;;;5012452;28;22189;-75
2021/11/14 09:31:41;;;;;;;49.03;27.20;;;;;;;;;;5033381;28;20293;-73
2021/11/14 09:34:07;;;;;;;41.93;25.00;;;;;;;;;;5033412;28;20224;-75
2021/11/14 09:36:34;;;;;;;46.10;26.10;;;;;;;;;;5032356;28;20232;-76
2021/11/14 09:39:03;;;;;;;43.83;26.03;;;;;;;;;;5031939;28;20315;-73
2021/11/14 09:41:33;;;;;;;45.97;26.33;;;;;;;;;;5030835;28;20220;-74
2021/11/14 09:44:01;;;;;;;44.70;27.23;;;;;;;;;;5030191;28;20216;-74
2021/11/14 09:46:30;;;;;;;39.87;25.27;;;;;;;;;;5014480;28;20227;-74
2021/11/14 09:48:57;;;;;;;41.77;25.37;;;;;;;;;;5032958;28;20220;-74
2021/11/14 09:51:23;;;;;;;41.87;25.67;;;;;;;;;;5011938;28;20242;-74
2021/11/14 09:53:53;;;;;;;43.47;24.97;;;;;;;;;;5032093;28;20769;-75
2021/11/14 09:56:23;;;;;;;47.00;24.73;;;;;;;;;;5017692;28;20236;-74
2021/11/14 09:58:53;;;;;;;43.43;24.33;;;;;;;;;;5028945;28;20219;-74
2021/11/14 10:01:21;;;;;;;43.17;25.43;;;;;;;;;;4997658;28;20223;-73
2021/11/14 10:03:52;;;;;;;39.17;24.87;;;;;;;;;;5031297;28;20221;-74
2021/11/14 10:06:28;;;;;;;43.07;24.60;;;;;;;;;;5007213;28;20245;-74
2021/11/14 10:08:54;;;;;;;41.10;24.43;;;;;;;;;;5000293;28;20226;-73
2021/11/14 10:11:33;;;;;;;39.67;24.63;;;;;;;;;;5004190;28;20213;-74
2021/11/14 10:14:04;;;;;;;38.87;24.70;;;;;;;;;;5036111;28;20298;-74
2021/11/14 10:16:35;;;;;;;45.93;26.73;;;;;;;;;;5036594;28;20224;-73
2021/11/14 10:19:23;;;;;;;42.23;24.87;;;;;;;;;;5036102;28;20216;-74
2021/11/14 10:21:48;;;;;;;42.47;25.87;;;;;;;;;;5019790;28;20224;-73
2021/11/14 10:24:16;;;;;;;41.13;25.97;;;;;;;;;;5001605;28;20568;-75
2021/11/14 10:26:42;;;;;;;45.93;25.83;;;;;;;;;;4997310;28;20228;-74
2021/11/14 10:29:09;;;;;;;44.43;26.63;;;;;;;;;;5017012;28;20685;-72
2021/11/14 10:31:38;;;;;;;46.23;26.97;;;;;;;;;;5018392;28;20233;-74
2021/11/14 10:34:04;;;;;;;43.53;25.80;;;;;;;;;;5015965;28;20293;-73
2021/11/14 10:36:30;;;;;;;44.50;26.17;;;;;;;;;;5033260;28;20899;-73
2021/11/14 10:39:06;;;;;;;41.13;25.53;;;;;;;;;;5017279;28;20240;-74
2021/11/14 10:41:32;;;;;;;39.70;25.60;;;;;;;;;;5004050;28;20224;-74
2021/11/14 10:44:23;;;;;;;43.97;25.67;;;;;;;;;;5016017;28;20228;-74
2021/11/14 10:46:54;;;;;;;43.83;24.33;;;;;;;;;;5032041;28;20227;-73
2021/11/14 10:49:21;;;;;;;37.73;24.67;;;;;;;;;;5033959;28;20224;-74
2021/11/14 10:51:56;;;;;;;39.87;23.80;;;;;;;;;;5035834;28;20220;-74
2021/11/14 10:54:28;;;;;;;40.13;24.40;;;;;;;;;;4985128;28;20235;-74
2021/11/14 10:57:01;;;;;;;43.13;24.60;;;;;;;;;;5035307;28;20308;-74
2021/11/14 10:59:26;;;;;;;41.33;24.47;;;;;;;;;;5018114;28;20225;-74
2021/11/14 11:01:52;;;;;;;42.47;25.37;;;;;;;;;;5029643;28;20221;-73
2021/11/14 11:04:23;;;;;;;40.07;24.57;;;;;;;;;;5021327;28;20228;-73
2021/11/14 11:06:55;;;;;;;38.03;23.40;;;;;;;;;;5030872;28;20302;-73
2021/11/14 11:09:33;;;;;;;37.67;23.37;;;;;;;;;;5008510;28;20223;-73
2021/11/14 11:12:02;;;;;;;34.47;22.60;;;;;;;;;;5017117;28;20219;-75
2021/11/14 11:14:28;;;;;;;34.33;22.23;;;;;;;;;;5029931;28;20307;-75
2021/11/14 11:16:53;;;;;;;35.33;22.63;;;;;;;;;;5015308;28;20311;-75
2021/11/14 11:19:26;;;;;;;32.23;21.70;;;;;;;;;;5014803;28;20230;-74
2021/11/14 11:22:02;;;;;;;36.70;23.50;;;;;;;;;;5033624;28;20261;-74
2021/11/14 11:24:27;;;;;;;32.93;21.63;;;;;;;;;;5013072;28;20224;-74
2021/11/14 11:26:54;;;;;;;36.63;21.67;;;;;;;;;;5028351;28;20208;-75
2021/11/14 11:29:25;;;;;;;32.20;21.27;;;;;;;;;;5031019;28;20223;-75
2021/11/14 11:31:51;;;;;;;35.13;23.03;;;;;;;;;;5013925;28;20224;-75
2021/11/14 11:34:19;;;;;;;34.33;22.37;;;;;;;;;;5014814;28;20250;-78
2021/11/14 11:36:45;;;;;;;35.60;21.87;;;;;;;;;;5034389;28;20228;-73
2021/11/14 11:39:12;;;;;;;35.97;21.63;;;;;;;;;;5035156;28;20243;-74
2021/11/14 11:41:42;;;;;;;34.40;21.80;;;;;;;;;;5018522;28;20216;-75
2021/11/14 11:44:11;;;;;;;37.13;23.33;;;;;;;;;;5029268;28;20604;-74
2021/11/14 11:46:36;;;;;;;36.33;23.40;;;;;;;;;;5035730;28;20342;-77
2021/11/14 11:49:08;;;;;;;37.27;22.00;;;;;;;;;;5018547;28;20282;-76
2021/11/14 11:51:41;;;;;;;35.13;21.77;;;;;;;;;;5019980;28;20698;-75
2021/11/14 11:54:14;;;;;;;35.50;23.70;;;;;;;;;;5036976;28;20235;-75
2021/11/14 11:56:58;;;;;;;35.80;21.63;;;;;;;;;;5019544;28;20307;-74
2021/11/14 11:59:37;;;;;;;32.00;21.17;;;;;;;;;;5018932;28;20235;-74
2021/11/14 12:02:35;;;;;;;34.80;22.17;;;;;;;;;;5034795;28;20216;-75
2021/11/14 12:05:06;;;;;;;32.40;20.27;;;;;;;;;;5033828;28;20216;-75
2021/11/14 12:07:34;;;;;;;30.67;19.97;;;;;;;;;;5036248;28;20216;-75
2021/11/14 12:10:21;;;;;;;29.70;18.50;;;;;;;;;;5018810;28;20233;-75
2021/11/14 12:12:55;;;;;;;29.03;18.40;;;;;;;;;;5035610;28;20228;-74
2021/11/14 12:15:29;;;;;;;32.57;18.97;;;;;;;;;;5034332;28;20278;-74
2021/11/14 12:17:59;;;;;;;26.40;17.47;;;;;;;;;;5040663;28;20230;-74
2021/11/14 12:20:31;;;;;;;25.63;17.40;;;;;;;;;;5016748;28;20234;-76
2021/11/14 12:23:17;;;;;;;27.57;17.97;;;;;;;;;;5035626;28;20243;-75
2021/11/14 12:25:52;;;;;;;25.60;18.07;;;;;;;;;;5020664;28;20223;-75
2021/11/14 12:28:32;;;;;;;25.90;17.50;;;;;;;;;;5034272;28;20227;-74
2021/11/14 12:31:10;;;;;;;25.00;16.83;;;;;;;;;;5019452;28;20262;-74
2021/11/14 12:33:47;;;;;;;27.50;16.57;;;;;;;;;;5043815;28;20717;-74
2021/11/14 12:36:41;;;;;;;27.07;18.40;;;;;;;;;;5017615;28;20219;-74
2021/11/14 12:39:16;;;;;;;23.97;16.97;;;;;;;;;;5033816;28;20306;-75
2021/11/14 12:42:03;;;;;;;26.97;17.40;;;;;;;;;;5027779;28;20227;-74
2021/11/14 12:44:43;;;;;;;27.60;17.47;;;;;;;;;;5035159;28;20220;-75
2021/11/14 12:47:24;;;;;;;24.73;17.67;;;;;;;;;;5033541;28;20779;-73
2021/11/14 12:50:03;;;;;;;28.33;18.90;;;;;;;;;;5014154;28;20228;-74
2021/11/14 12:52:31;;;;;;;27.77;18.20;;;;;;;;;;5015962;28;20222;-74
2021/11/14 12:55:05;;;;;;;24.10;16.40;;;;;;;;;;5016934;28;20212;-74
2021/11/14 12:58:00;;;;;;;23.47;16.17;;;;;;;;;;5001538;28;20232;-74
2021/11/14 13:00:32;;;;;;;24.17;16.00;;;;;;;;;;5033852;28;20228;-75
2021/11/14 13:03:00;;;;;;;26.23;16.37;;;;;;;;;;5034816;28;20251;-74
2021/11/14 13:05:27;;;;;;;23.50;15.63;;;;;;;;;;5034230;28;20223;-74
2021/11/14 13:07:56;;;;;;;22.33;15.43;;;;;;;;;;5036228;28;20223;-75
2021/11/14 13:10:25;;;;;;;24.17;16.53;;;;;;;;;;4999518;28;20247;-74
2021/11/14 13:12:53;;;;;;;29.80;18.60;;;;;;;;;;4997466;28;20235;-74
2021/11/14 13:15:19;;;;;;;29.00;18.37;;;;;;;;;;4980125;28;20275;-75
2021/11/14 13:17:53;;;;;;;25.10;17.00;;;;;;;;;;5027238;28;20224;-73
2021/11/14 13:20:24;;;;;;;25.70;16.53;;;;;;;;;;5012826;28;20219;-73
2021/11/14 13:22:51;;;;;;;23.43;15.83;;;;;;;;;;5032395;28;20224;-73
2021/11/14 13:25:35;;;;;;;22.40;15.47;;;;;;;;;;5030698;28;20220;-73
2021/11/14 13:28:03;;;;;;;24.70;15.57;;;;;;;;;;5013903;28;20720;-74
2021/11/14 13:30:31;;;;;;;21.90;15.60;;;;;;;;;;5015641;28;20299;-74
2021/11/14 13:32:58;;;;;;;23.73;15.70;;;;;;;;;;5015847;28;20303;-74
2021/11/14 13:35:26;;;;;;;22.73;15.60;;;;;;;;;;5012237;28;20225;-74
2021/11/14 13:37:54;;;;;;;20.47;14.07;;;;;;;;;;5012938;28;20256;-75
2021/11/14 13:40:20;;;;;;;19.40;14.27;;;;;;;;;;5030007;28;20220;-74
2021/11/14 13:43:00;;;;;;;19.57;13.73;;;;;;;;;;5031534;28;20228;-74
2021/11/14 13:45:28;;;;;;;21.77;13.90;;;;;;;;;;5007849;28;20215;-74
2021/11/14 13:47:54;;;;;;;20.83;14.67;;;;;;;;;;4999590;28;20224;-74
2021/11/14 13:50:23;;;;;;;21.80;14.90;;;;;;;;;;5064042;28;20226;-75
2021/11/14 13:53:01;;;;;;;24.80;18.10;;;;;;;;;;5062063;28;20243;-75
2021/11/14 13:55:26;;;;;;;19.67;14.43;;;;;;;;;;5038632;28;20279;-74
2021/11/14 13:57:52;;;;;;;22.20;15.27;;;;;;;;;;5015149;28;20228;-73
2021/11/14 14:00:29;;;;;;;21.60;15.70;;;;;;;;;;5031242;28;20242;-74
2021/11/14 14:02:57;;;;;;;22.60;15.53;;;;;;;;;;4982315;28;20620;-75
2021/11/14 14:05:24;;;;;;;23.63;16.03;;;;;;;;;;5025235;28;20404;-75
2021/11/14 14:07:51;;;;;;;24.30;16.03;;;;;;;;;;4998631;28;20890;-75
2021/11/14 14:10:21;;;;;;;24.27;16.83;;;;;;;;;;5004241;28;20223;-74
2021/11/14 14:12:47;;;;;;;25.10;16.87;;;;;;;;;;4999271;28;20330;-74
2021/11/14 14:15:21;;;;;;;25.90;18.17;;;;;;;;;;5030372;28;20663;-74
2021/11/14 14:17:50;;;;;;;27.23;17.97;;;;;;;;;;5009315;28;20285;-74
2021/11/14 14:20:16;;;;;;;28.20;18.47;;;;;;;;;;5012033;28;20832;-73
2021/11/14 14:22:45;;;;;;;30.77;19.20;;;;;;;;;;4996114;28;20224;-73
2021/11/14 14:25:15;;;;;;;30.33;19.83;;;;;;;;;;4987912;28;20282;-74
2021/11/14 14:27:42;;;;;;;31.93;19.30;;;;;;;;;;5010867;28;20778;-73
2021/11/14 14:30:11;;;;;;;34.17;22.50;;;;;;;;;;5029212;28;20227;-73
2021/11/14 14:32:50;;;;;;;35.47;22.13;;;;;;;;;;5029687;28;20252;-73